Weather at Førde Airport, Bringeland

Public forecast

Using degrees Celsius for public forecast. Weather courtesy of forecast.io.

Current aviation weather report (METAR) for Førde Airport, Bringeland

2024/05/21 12:20 (retrieved 34 minutes ago)

ENBL 211220Z VRB04KT 9999 FEW060 SCT080 23/07 Q1019

Closest aviation forecast (TAF) to Førde Airport, Bringeland

Closest forecast is Bergen Airport, Flesland, 67.8 nm (125.5 km) SSW.

2024/05/21 12:37 (retrieved 17 minutes ago)

TAF ENBR 211100Z 2112/2212 25007KT CAVOK BECMG 2113/2115 33010KT BECMG 2120/2122 12005KT